sensor_id;sensor_type;location;lat;lon;timestamp;temperature;humidity
9971;DHT22;5026;51.494;11.974;2023-08-06T00:00:54;17.60;99.90
9971;DHT22;5026;51.494;11.974;2023-08-06T00:08:16;17.70;99.90
9971;DHT22;5026;51.494;11.974;2023-08-06T00:10:42;18.00;99.90
9971;DHT22;5026;51.494;11.974;2023-08-06T00:13:09;18.10;99.90
9971;DHT22;5026;51.494;11.974;2023-08-06T00:18:05;17.80;99.90
9971;DHT22;5026;51.494;11.974;2023-08-06T00:20:32;18.00;99.90
9971;DHT22;5026;51.494;11.974;2023-08-06T00:22:58;18.00;99.90
9971;DHT22;5026;51.494;11.974;2023-08-06T00:30:19;17.90;99.90
9971;DHT22;5026;51.494;11.974;2023-08-06T00:32:48;18.00;99.90
9971;DHT22;5026;51.494;11.974;2023-08-06T00:40:09;18.40;99.90
9971;DHT22;5026;51.494;11.974;2023-08-06T00:52:26;18.10;99.90
9971;DHT22;5026;51.494;11.974;2023-08-06T00:54:53;17.90;99.90
9971;DHT22;5026;51.494;11.974;2023-08-06T00:57:21;18.20;99.90
9971;DHT22;5026;51.494;11.974;2023-08-06T01:02:18;17.90;99.90
9971;DHT22;5026;51.494;11.974;2023-08-06T01:04:45;18.40;99.90
9971;DHT22;5026;51.494;11.974;2023-08-06T01:12:23;18.10;99.90
9971;DHT22;5026;51.494;11.974;2023-08-06T01:15:00;18.00;99.90
9971;DHT22;5026;51.494;11.974;2023-08-06T01:17:28;17.90;99.90
9971;DHT22;5026;51.494;11.974;2023-08-06T01:29:57;17.50;99.90
9971;DHT22;5026;51.494;11.974;2023-08-06T01:32:26;17.40;99.90
9971;DHT22;5026;51.494;11.974;2023-08-06T01:34:54;17.40;99.90
9971;DHT22;5026;51.494;11.974;2023-08-06T01:57:04;17.10;99.90
9971;DHT22;5026;51.494;11.974;2023-08-06T02:06:52;17.10;99.90
9971;DHT22;5026;51.494;11.974;2023-08-06T02:09:19;17.20;99.90
9971;DHT22;5026;51.494;11.974;2023-08-06T02:11:46;17.20;99.90
9971;DHT22;5026;51.494;11.974;2023-08-06T02:14:14;17.20;99.90
9971;DHT22;5026;51.494;11.974;2023-08-06T02:16:41;17.10;99.90
9971;DHT22;5026;51.494;11.974;2023-08-06T02:24:03;17.20;99.90
9971;DHT22;5026;51.494;11.974;2023-08-06T02:31:26;16.90;99.90
9971;DHT22;5026;51.494;11.974;2023-08-06T02:36:20;16.60;99.90
9971;DHT22;5026;51.494;11.974;2023-08-06T02:38:47;16.20;99.90
9971;DHT22;5026;51.494;11.974;2023-08-06T02:41:14;16.40;99.90
9971;DHT22;5026;51.494;11.974;2023-08-06T02:43:41;16.70;99.90
9971;DHT22;5026;51.494;11.974;2023-08-06T02:48:36;16.30;99.90
9971;DHT22;5026;51.494;11.974;2023-08-06T02:51:03;16.40;99.90
9971;DHT22;5026;51.494;11.974;2023-08-06T03:05:55;16.40;99.90
9971;DHT22;5026;51.494;11.974;2023-08-06T03:10:49;16.20;99.90
9971;DHT22;5026;51.494;11.974;2023-08-06T03:13:16;16.50;99.90
9971;DHT22;5026;51.494;11.974;2023-08-06T03:18:10;16.30;99.90
9971;DHT22;5026;51.494;11.974;2023-08-06T03:20:37;16.10;99.90
9971;DHT22;5026;51.494;11.974;2023-08-06T03:23:05;16.20;99.90
9971;DHT22;5026;51.494;11.974;2023-08-06T03:25:35;16.30;99.90
9971;DHT22;5026;51.494;11.974;2023-08-06T03:28:02;16.30;99.90
9971;DHT22;5026;51.494;11.974;2023-08-06T03:40:19;16.30;99.90
9971;DHT22;5026;51.494;11.974;2023-08-06T03:47:40;16.20;99.90
9971;DHT22;5026;51.494;11.974;2023-08-06T03:52:34;16.30;99.90
9971;DHT22;5026;51.494;11.974;2023-08-06T03:57:30;16.50;99.90
9971;DHT22;5026;51.494;11.974;2023-08-06T03:59:57;16.70;99.90
9971;DHT22;5026;51.494;11.974;2023-08-06T04:07:19;16.50;99.90
9971;DHT22;5026;51.494;11.974;2023-08-06T04:09:53;16.70;99.90
9971;DHT22;5026;51.494;11.974;2023-08-06T04:12:21;16.70;99.90
9971;DHT22;5026;51.494;11.974;2023-08-06T04:19:46;16.70;99.90
9971;DHT22;5026;51.494;11.974;2023-08-06T04:27:08;16.90;99.90
9971;DHT22;5026;51.494;11.974;2023-08-06T04:32:07;16.80;99.90
9971;DHT22;5026;51.494;11.974;2023-08-06T04:34:34;16.80;99.90
9971;DHT22;5026;51.494;11.974;2023-08-06T04:37:02;17.10;99.90
9971;DHT22;5026;51.494;11.974;2023-08-06T04:39:29;16.80;99.90
9971;DHT22;5026;51.494;11.974;2023-08-06T04:41:56;16.70;99.90
9971;DHT22;5026;51.494;11.974;2023-08-06T04:49:20;16.70;99.90
9971;DHT22;5026;51.494;11.974;2023-08-06T04:51:47;16.80;99.90
9971;DHT22;5026;51.494;11.974;2023-08-06T04:56:41;17.20;99.90
9971;DHT22;5026;51.494;11.974;2023-08-06T04:59:08;17.40;99.90
9971;DHT22;5026;51.494;11.974;2023-08-06T05:08:57;16.80;99.90
9971;DHT22;5026;51.494;11.974;2023-08-06T05:11:24;17.30;99.90
9971;DHT22;5026;51.494;11.974;2023-08-06T05:13:51;17.10;99.90
9971;DHT22;5026;51.494;11.974;2023-08-06T05:16:18;17.20;99.90
9971;DHT22;5026;51.494;11.974;2023-08-06T05:21:12;17.30;99.90
9971;DHT22;5026;51.494;11.974;2023-08-06T05:23:40;17.30;99.90
9971;DHT22;5026;51.494;11.974;2023-08-06T05:26:07;17.40;99.90
9971;DHT22;5026;51.494;11.974;2023-08-06T05:40:53;17.50;99.90
9971;DHT22;5026;51.494;11.974;2023-08-06T05:43:20;17.40;99.90
9971;DHT22;5026;51.494;11.974;2023-08-06T05:45:49;17.40;99.90
9971;DHT22;5026;51.494;11.974;2023-08-06T05:55:38;18.00;99.90
9971;DHT22;5026;51.494;11.974;2023-08-06T05:58:07;17.90;99.90
9971;DHT22;5026;51.494;11.974;2023-08-06T06:00:33;18.20;99.90
9971;DHT22;5026;51.494;11.974;2023-08-06T06:03:00;18.10;99.90
9971;DHT22;5026;51.494;11.974;2023-08-06T06:05:28;18.30;99.90
9971;DHT22;5026;51.494;11.974;2023-08-06T06:07:55;17.50;99.90
9971;DHT22;5026;51.494;11.974;2023-08-06T06:17:45;18.30;99.90
9971;DHT22;5026;51.494;11.974;2023-08-06T06:20:11;17.90;99.90
9971;DHT22;5026;51.494;11.974;2023-08-06T06:25:06;18.20;99.90
9971;DHT22;5026;51.494;11.974;2023-08-06T06:32:29;18.50;99.90
9971;DHT22;5026;51.494;11.974;2023-08-06T06:39:51;18.90;99.90
9971;DHT22;5026;51.494;11.974;2023-08-06T06:44:45;19.10;99.90
9971;DHT22;5026;51.494;11.974;2023-08-06T06:47:12;19.20;99.90
9971;DHT22;5026;51.494;11.974;2023-08-06T06:52:07;19.50;99.90
9971;DHT22;5026;51.494;11.974;2023-08-06T06:54:34;19.30;99.90
9971;DHT22;5026;51.494;11.974;2023-08-06T06:57:01;19.00;99.90
9971;DHT22;5026;51.494;11.974;2023-08-06T07:04:22;19.70;99.90
9971;DHT22;5026;51.494;11.974;2023-08-06T07:06:51;19.70;99.90
9971;DHT22;5026;51.494;11.974;2023-08-06T07:11:45;19.50;99.90
9971;DHT22;5026;51.494;11.974;2023-08-06T07:21:34;20.50;99.90
9971;DHT22;5026;51.494;11.974;2023-08-06T07:24:03;20.00;99.90
9971;DHT22;5026;51.494;11.974;2023-08-06T07:28:57;20.80;99.90
9971;DHT22;5026;51.494;11.974;2023-08-06T07:33:51;20.00;99.90
9971;DHT22;5026;51.494;11.974;2023-08-06T07:48:39;21.70;99.90
9971;DHT22;5026;51.494;11.974;2023-08-06T07:53:33;21.50;99.90
9971;DHT22;5026;51.494;11.974;2023-08-06T08:00:57;22.30;99.90
9971;DHT22;5026;51.494;11.974;2023-08-06T08:10:50;22.90;99.90
9971;DHT22;5026;51.494;11.974;2023-08-06T08:13:17;22.30;99.90
9971;DHT22;5026;51.494;11.974;2023-08-06T08:15:45;22.50;99.90
9971;DHT22;5026;51.494;11.974;2023-08-06T08:18:12;21.50;99.90
9971;DHT22;5026;51.494;11.974;2023-08-06T08:20:39;22.10;99.90
9971;DHT22;5026;51.494;11.974;2023-08-06T08:25:33;22.60;99.90
9971;DHT22;5026;51.494;11.974;2023-08-06T08:27:59;22.60;99.90
9971;DHT22;5026;51.494;11.974;2023-08-06T08:30:26;22.90;99.90
9971;DHT22;5026;51.494;11.974;2023-08-06T08:37:49;22.30;99.90
9971;DHT22;5026;51.494;11.974;2023-08-06T08:42:44;22.60;99.90
9971;DHT22;5026;51.494;11.974;2023-08-06T08:52:39;23.50;99.00
9971;DHT22;5026;51.494;11.974;2023-08-06T08:57:34;24.70;99.90
9971;DHT22;5026;51.494;11.974;2023-08-06T09:00:02;25.00;99.90
9971;DHT22;5026;51.494;11.974;2023-08-06T09:12:24;26.00;99.90
9971;DHT22;5026;51.494;11.974;2023-08-06T09:14:52;25.00;97.80
9971;DHT22;5026;51.494;11.974;2023-08-06T09:24:44;25.20;96.30
9971;DHT22;5026;51.494;11.974;2023-08-06T09:29:42;25.10;96.30
9971;DHT22;5026;51.494;11.974;2023-08-06T09:32:11;25.60;96.70
9971;DHT22;5026;51.494;11.974;2023-08-06T09:34:39;25.20;95.80
9971;DHT22;5026;51.494;11.974;2023-08-06T09:37:08;24.60;99.00
9971;DHT22;5026;51.494;11.974;2023-08-06T09:42:04;25.30;99.50
9971;DHT22;5026;51.494;11.974;2023-08-06T09:51:55;25.50;98.10
9971;DHT22;5026;51.494;11.974;2023-08-06T10:01:48;26.90;94.50
9971;DHT22;5026;51.494;11.974;2023-08-06T10:06:46;26.20;95.00
9971;DHT22;5026;51.494;11.974;2023-08-06T10:11:42;26.90;92.50
9971;DHT22;5026;51.494;11.974;2023-08-06T10:16:42;26.80;92.40
9971;DHT22;5026;51.494;11.974;2023-08-06T10:21:38;26.60;95.60
9971;DHT22;5026;51.494;11.974;2023-08-06T10:29:36;26.90;91.50
9971;DHT22;5026;51.494;11.974;2023-08-06T10:32:05;27.10;91.00
9971;DHT22;5026;51.494;11.974;2023-08-06T10:34:55;27.10;90.20
9971;DHT22;5026;51.494;11.974;2023-08-06T10:39:50;27.80;93.40
9971;DHT22;5026;51.494;11.974;2023-08-06T10:47:38;28.00;85.90
9971;DHT22;5026;51.494;11.974;2023-08-06T10:52:32;27.70;87.60
9971;DHT22;5026;51.494;11.974;2023-08-06T10:59:54;27.70;90.20
9971;DHT22;5026;51.494;11.974;2023-08-06T11:02:21;27.60;91.60
9971;DHT22;5026;51.494;11.974;2023-08-06T11:04:49;28.00;91.80
9971;DHT22;5026;51.494;11.974;2023-08-06T11:09:44;27.50;86.50
9971;DHT22;5026;51.494;11.974;2023-08-06T11:12:11;28.10;84.70
9971;DHT22;5026;51.494;11.974;2023-08-06T11:14:38;28.30;90.30
9971;DHT22;5026;51.494;11.974;2023-08-06T11:22:01;26.80;82.20
9971;DHT22;5026;51.494;11.974;2023-08-06T11:29:22;27.60;86.10
9971;DHT22;5026;51.494;11.974;2023-08-06T11:31:49;27.20;80.30
9971;DHT22;5026;51.494;11.974;2023-08-06T11:36:43;27.30;86.10
9971;DHT22;5026;51.494;11.974;2023-08-06T11:39:12;27.50;77.30
9971;DHT22;5026;51.494;11.974;2023-08-06T11:41:39;27.30;80.00
9971;DHT22;5026;51.494;11.974;2023-08-06T11:56:43;27.10;88.60
9971;DHT22;5026;51.494;11.974;2023-08-06T12:01:39;26.50;89.20
9971;DHT22;5026;51.494;11.974;2023-08-06T12:06:42;26.70;81.00
9971;DHT22;5026;51.494;11.974;2023-08-06T12:16:32;25.70;87.60
9971;DHT22;5026;51.494;11.974;2023-08-06T12:18:59;25.80;88.00
9971;DHT22;5026;51.494;11.974;2023-08-06T12:26:20;25.40;89.00
9971;DHT22;5026;51.494;11.974;2023-08-06T12:33:43;25.80;84.50
9971;DHT22;5026;51.494;11.974;2023-08-06T12:38:37;26.00;89.40
9971;DHT22;5026;51.494;11.974;2023-08-06T12:41:04;25.90;88.70
9971;DHT22;5026;51.494;11.974;2023-08-06T12:45:59;26.10;80.30
9971;DHT22;5026;51.494;11.974;2023-08-06T12:48:26;25.90;87.40
9971;DHT22;5026;51.494;11.974;2023-08-06T12:55:48;26.80;82.90
9971;DHT22;5026;51.494;11.974;2023-08-06T12:58:15;27.00;85.50
9971;DHT22;5026;51.494;11.974;2023-08-06T13:00:42;27.40;85.20
9971;DHT22;5026;51.494;11.974;2023-08-06T13:05:37;25.70;85.00
9971;DHT22;5026;51.494;11.974;2023-08-06T13:22:49;25.30;81.20
9971;DHT22;5026;51.494;11.974;2023-08-06T13:35:07;25.50;87.90
9971;DHT22;5026;51.494;11.974;2023-08-06T13:37:35;25.60;80.10
9971;DHT22;5026;51.494;11.974;2023-08-06T13:40:03;26.10;89.20
9971;DHT22;5026;51.494;11.974;2023-08-06T13:44:57;27.10;86.00
9971;DHT22;5026;51.494;11.974;2023-08-06T13:52:22;27.10;86.10
9971;DHT22;5026;51.494;11.974;2023-08-06T13:59:45;25.20;86.50
9971;DHT22;5026;51.494;11.974;2023-08-06T14:12:02;25.70;86.40
9971;DHT22;5026;51.494;11.974;2023-08-06T14:16:58;26.00;86.10
9971;DHT22;5026;51.494;11.974;2023-08-06T14:19:24;26.10;85.90
9971;DHT22;5026;51.494;11.974;2023-08-06T14:24:19;25.40;85.80
9971;DHT22;5026;51.494;11.974;2023-08-06T14:26:46;25.10;80.60
9971;DHT22;5026;51.494;11.974;2023-08-06T14:29:14;24.90;77.30
9971;DHT22;5026;51.494;11.974;2023-08-06T14:31:41;24.30;86.70
9971;DHT22;5026;51.494;11.974;2023-08-06T15:01:09;24.00;89.80
9971;DHT22;5026;51.494;11.974;2023-08-06T15:15:56;23.60;91.70
9971;DHT22;5026;51.494;11.974;2023-08-06T15:23:19;22.80;92.30
9971;DHT22;5026;51.494;11.974;2023-08-06T15:30:40;23.00;93.40
9971;DHT22;5026;51.494;11.974;2023-08-06T15:35:37;22.10;94.00
9971;DHT22;5026;51.494;11.974;2023-08-06T15:38:06;22.40;89.70
9971;DHT22;5026;51.494;11.974;2023-08-06T15:40:33;22.30;94.40
9971;DHT22;5026;51.494;11.974;2023-08-06T15:42:59;21.90;94.50
9971;DHT22;5026;51.494;11.974;2023-08-06T16:12:31;22.50;90.00
9971;DHT22;5026;51.494;11.974;2023-08-06T16:14:58;22.50;91.10
9971;DHT22;5026;51.494;11.974;2023-08-06T16:17:25;22.60;94.00
9971;DHT22;5026;51.494;11.974;2023-08-06T16:19:53;22.60;90.50
9971;DHT22;5026;51.494;11.974;2023-08-06T16:22:20;21.80;91.90
9971;DHT22;5026;51.494;11.974;2023-08-06T16:39:33;21.60;93.10
9971;DHT22;5026;51.494;11.974;2023-08-06T16:42:00;22.10;93.80
9971;DHT22;5026;51.494;11.974;2023-08-06T17:09:05;20.70;99.20
9971;DHT22;5026;51.494;11.974;2023-08-06T17:28:45;20.60;99.90
9971;DHT22;5026;51.494;11.974;2023-08-06T17:58:14;20.10;99.90
9971;DHT22;5026;51.494;11.974;2023-08-06T18:03:14;20.30;99.90
9971;DHT22;5026;51.494;11.974;2023-08-06T18:08:09;20.00;99.90
9971;DHT22;5026;51.494;11.974;2023-08-06T18:15:34;20.50;99.90
9971;DHT22;5026;51.494;11.974;2023-08-06T18:18:01;19.60;99.90
9971;DHT22;5026;51.494;11.974;2023-08-06T18:37:41;19.70;99.90
9971;DHT22;5026;51.494;11.974;2023-08-06T18:42:35;19.10;99.90
9971;DHT22;5026;51.494;11.974;2023-08-06T18:47:33;19.10;99.90
9971;DHT22;5026;51.494;11.974;2023-08-06T18:59:49;18.60;99.90
9971;DHT22;5026;51.494;11.974;2023-08-06T19:04:46;18.80;99.90
9971;DHT22;5026;51.494;11.974;2023-08-06T19:07:16;18.70;99.90
9971;DHT22;5026;51.494;11.974;2023-08-06T19:12:11;18.10;99.90
9971;DHT22;5026;51.494;11.974;2023-08-06T19:14:40;17.90;99.90
9971;DHT22;5026;51.494;11.974;2023-08-06T19:22:02;18.30;99.90
9971;DHT22;5026;51.494;11.974;2023-08-06T19:24:29;17.80;99.90
9971;DHT22;5026;51.494;11.974;2023-08-06T19:26:56;18.10;99.90
9971;DHT22;5026;51.494;11.974;2023-08-06T19:29:25;17.90;99.90
9971;DHT22;5026;51.494;11.974;2023-08-06T19:46:37;17.70;99.90
9971;DHT22;5026;51.494;11.974;2023-08-06T19:49:03;17.40;99.90
9971;DHT22;5026;51.494;11.974;2023-08-06T19:53:57;17.60;99.90
9971;DHT22;5026;51.494;11.974;2023-08-06T19:56:26;17.50;99.90
9971;DHT22;5026;51.494;11.974;2023-08-06T20:01:21;17.30;99.90
9971;DHT22;5026;51.494;11.974;2023-08-06T20:03:48;17.20;99.90
9971;DHT22;5026;51.494;11.974;2023-08-06T20:08:43;17.40;99.90
9971;DHT22;5026;51.494;11.974;2023-08-06T20:13:39;17.40;99.90
9971;DHT22;5026;51.494;11.974;2023-08-06T20:18:34;17.10;99.90
9971;DHT22;5026;51.494;11.974;2023-08-06T20:25:55;17.10;99.90
9971;DHT22;5026;51.494;11.974;2023-08-06T20:38:16;17.00;99.90
9971;DHT22;5026;51.494;11.974;2023-08-06T20:40:44;17.40;99.90
9971;DHT22;5026;51.494;11.974;2023-08-06T20:50:39;17.10;99.90
9971;DHT22;5026;51.494;11.974;2023-08-06T20:53:06;17.00;99.90
9971;DHT22;5026;51.494;11.974;2023-08-06T20:55:33;17.10;99.90
9971;DHT22;5026;51.494;11.974;2023-08-06T20:58:00;17.40;99.90
9971;DHT22;5026;51.494;11.974;2023-08-06T21:02:54;17.30;99.90
9971;DHT22;5026;51.494;11.974;2023-08-06T21:05:22;17.20;99.90
9971;DHT22;5026;51.494;11.974;2023-08-06T21:10:17;17.20;99.90
9971;DHT22;5026;51.494;11.974;2023-08-06T21:12:44;17.20;99.90
9971;DHT22;5026;51.494;11.974;2023-08-06T21:15:11;17.30;99.90
9971;DHT22;5026;51.494;11.974;2023-08-06T21:20:07;16.80;99.90
9971;DHT22;5026;51.494;11.974;2023-08-06T21:29:58;16.90;99.90
9971;DHT22;5026;51.494;11.974;2023-08-06T21:47:09;16.50;99.90
9971;DHT22;5026;51.494;11.974;2023-08-06T21:49:36;17.00;99.90
9971;DHT22;5026;51.494;11.974;2023-08-06T21:54:31;16.80;99.90
9971;DHT22;5026;51.494;11.974;2023-08-06T21:59:26;16.70;99.90
9971;DHT22;5026;51.494;11.974;2023-08-06T22:06:47;16.80;99.90
9971;DHT22;5026;51.494;11.974;2023-08-06T22:09:14;16.70;99.90
9971;DHT22;5026;51.494;11.974;2023-08-06T22:11:42;16.80;99.90
9971;DHT22;5026;51.494;11.974;2023-08-06T22:16:37;16.00;99.90
9971;DHT22;5026;51.494;11.974;2023-08-06T22:19:04;16.70;99.90
9971;DHT22;5026;51.494;11.974;2023-08-06T22:26:25;16.70;99.90
9971;DHT22;5026;51.494;11.974;2023-08-06T22:36:15;16.00;99.90
9971;DHT22;5026;51.494;11.974;2023-08-06T22:43:37;16.40;99.90
9971;DHT22;5026;51.494;11.974;2023-08-06T22:46:03;16.40;99.90
9971;DHT22;5026;51.494;11.974;2023-08-06T22:48:32;16.30;99.90
9971;DHT22;5026;51.494;11.974;2023-08-06T22:53:26;16.50;99.90
9971;DHT22;5026;51.494;11.974;2023-08-06T22:58:20;16.20;99.90
9971;DHT22;5026;51.494;11.974;2023-08-06T23:00:46;16.40;99.90
9971;DHT22;5026;51.494;11.974;2023-08-06T23:03:13;16.00;99.90
9971;DHT22;5026;51.494;11.974;2023-08-06T23:10:36;16.00;99.90
9971;DHT22;5026;51.494;11.974;2023-08-06T23:15:32;16.30;99.90
9971;DHT22;5026;51.494;11.974;2023-08-06T23:22:55;16.10;99.90
9971;DHT22;5026;51.494;11.974;2023-08-06T23:35:10;16.20;99.90
9971;DHT22;5026;51.494;11.974;2023-08-06T23:42:34;15.70;99.90
9971;DHT22;5026;51.494;11.974;2023-08-06T23:47:28;15.80;99.90
9971;DHT22;5026;51.494;11.974;2023-08-06T23:59:45;15.90;99.90
